This is the latest recevied weather packets stored in our database for station/object KB0Y. If no packets are shown the sender has not sent any weather packets the latest 10 day(s).
| Time | Temp. | Humidity | Pressure | Rain* | Wind** | Luminosity | Snow |
|---|---|---|---|---|---|---|---|
| 1777746841 | 14.44° C | 99% | 1015.2 hPa | 0 mm | - | 95 W/m² | - |
| 1777746537 | 14.44° C | 99% | 1015.6 hPa | 0 mm | - | 108 W/m² | - |
| 1777745928 | 14.44° C | 99% | 1015.6 hPa | 0 mm | - | 91 W/m² | - |
| 1777745628 | 14.44° C | 99% | 1015.6 hPa | 0 mm | - | 99 W/m² | - |
| 1777745325 | 14.44° C | 99% | 1015.6 hPa | 0 mm | - | 82 W/m² | - |
| 1777744718 | 14.44° C | 99% | 1015.2 hPa | 0 mm | - | 87 W/m² | - |
| 1777744110 | 14.44° C | 99% | 1014.5 hPa | 1.78 mm | - | 190 W/m² | - |
| 1777742899 | 14.44° C | 99% | 1015.6 hPa | 0 mm | - | 122 W/m² | - |
| 1777740471 | 14.44° C | 99% | 1015.2 hPa | 1.78 mm | - | 82 W/m² | - |
| 1777739864 | 14.44° C | 99% | 1014.9 hPa | 0 mm | - | 50 W/m² | - |
| 1777739258 | 14.44° C | 99% | 1014.9 hPa | 0 mm | - | 49 W/m² | - |
| 1777738652 | 15° C | 99% | 1014.9 hPa | 0 mm | - | 48 W/m² | - |
| 1777738046 | 15° C | 99% | 1014.2 hPa | 0 mm | - | 92 W/m² | - |
| 1777737745 | 15° C | 99% | 1014.5 hPa | 0 mm | - | 111 W/m² | - |
| 1777736218 | 15° C | 99% | 1014.9 hPa | 0 mm | - | 109 W/m² | - |
| 1777735915 | 15° C | 99% | 1014.5 hPa | 0 mm | - | 149 W/m² | - |
| 1777735612 | 15° C | 99% | 1014.5 hPa | 0 mm | - | 171 W/m² | - |
| 1777735309 | 15° C | 99% | 1014.5 hPa | 0 mm | - | 193 W/m² | - |
| 1777735007 | 15° C | 99% | 1014.9 hPa | 1.78 mm | - | 81 W/m² | - |
| 1777734704 | 15° C | 99% | 1014.9 hPa | 3.56 mm | - | 90 W/m² | - |
| 1777734401 | 15° C | 99% | 1015.2 hPa | 3.56 mm | - | 78 W/m² | - |
| 1777734097 | 15° C | 99% | 1015.2 hPa | 3.56 mm | - | 66 W/m² | - |
| 1777733794 | 15° C | 99% | 1014.5 hPa | 3.56 mm | - | 88 W/m² | - |
| 1777733491 | 15° C | 99% | 1014.5 hPa | 3.56 mm | - | 76 W/m² | - |
| 1777733186 | 15° C | 99% | 1014.9 hPa | 5.33 mm | - | 43 W/m² | - |
* Rain latest hour (hover to see other rain measurements)
** Current wind speed in m/s (hover to see current wind gust speed)